Overview Statistics Trail Chart Weather Telemetry Raw packets
 

This is the latest recevied weather packets stored in our database for station/object DG6YGE-6. If no packets are shown the sender has not sent any weather packets the latest 10 day(s).

<< 1 2 3 4 5 6 7 >>
Time Temp. Humidity Pressure Rain* Wind** Luminosity Snow
1788620951 18.89° C 67% 1019.6 hPa 0 mm - 150 W/m² -
1788620352 18.89° C 66% 1019.5 hPa 0 mm - 122 W/m² -
1788619751 18.89° C 66% 1019.3 hPa 0 mm - 168 W/m² -
1788619151 18.89° C 65% 1019.2 hPa 0 mm - 237 W/m² -
1788618551 19.44° C 64% 1019 hPa 0 mm - 366 W/m² -
1788617951 18.89° C 63% 1018.8 hPa 0 mm - 615 W/m² -
1788617351 18.89° C 62% 1018.8 hPa 0 mm - 107 W/m² -
1788616752 19.44° C 62% 1018.7 hPa 0 mm - 251 W/m² -
1788616151 19.44° C 61% 1018.7 hPa 0 mm - 213 W/m² -
1788615551 19.44° C 64% 1018.5 hPa 0 mm - 478 W/m² -
1788614952 19.44° C 68% 1018.7 hPa 0 mm - 333 W/m² -
1788614351 18.89° C 68% 1018.5 hPa 0 mm - 285 W/m² -
1788613751 18.89° C 69% 1018.3 hPa 0 mm - 431 W/m² -
1788613152 18.33° C 70% 1018.2 hPa 0 mm - 792 W/m² -
1788612551 17.78° C 72% 1018.1 hPa 0 mm - 655 W/m² -
1788611951 17.22° C 75% 1018 hPa 0 mm - 395 W/m² -
1788611351 16.67° C 78% 1018.1 hPa 0 mm - 153 W/m² -
1788610751 16.67° C 81% 1018.1 hPa 0 mm - 104 W/m² -
1788610151 16.67° C 83% 1017.9 hPa 0 mm - 116 W/m² -
1788609551 17.22° C 82% 1017.8 hPa 0 mm - 84 W/m² -
1788608951 17.22° C 79% 1017.7 hPa 0 mm - 72 W/m² -
1788608351 17.78° C 76% 1017.5 hPa 0 mm - 44 W/m² -
1788607752 18.33° C 72% 1017.1 hPa 0 mm - 43 W/m² -
1788607151 18.33° C 72% 1017.1 hPa 0 mm - 105 W/m² -
1788606551 18.89° C 69% 1017 hPa 0 mm - 78 W/m² -

* Rain latest hour (hover to see other rain measurements)
** Current wind speed in m/s (hover to see current wind gust speed)